Time;durP1;ratioP1;P1;durP2;ratioP2;P2;SDS_P1;SDS_P2;PMS_P1;PMS_P2;Temp;Humidity;BMP_temperature;BMP_pressure;BME280_temperature;BME280_humidity;BME280_pressure;Samples;Min_cycle;Max_cycle;Signal;HPM_P1;HPM_P2
2021/10/30 00:00:55;;;;;;;8.07;6.50;;;14.20;99.90;;;;;;5075406;28;20239;-74
2021/10/30 00:03:20;;;;;;;9.43;6.77;;;14.20;99.90;;;;;;5075215;28;20182;-74
2021/10/30 00:05:46;;;;;;;8.07;6.60;;;14.10;99.90;;;;;;5074576;28;20679;-73
2021/10/30 00:08:13;;;;;;;6.50;5.90;;;14.10;99.90;;;;;;5074927;28;20268;-73
2021/10/30 00:10:38;;;;;;;9.20;6.87;;;14.10;99.90;;;;;;5074940;28;20455;-74
2021/10/30 00:13:04;;;;;;;7.03;5.87;;;14.10;99.90;;;;;;5074827;28;20446;-73
2021/10/30 00:15:29;;;;;;;7.37;6.50;;;14.10;99.90;;;;;;5073905;28;20169;-73
2021/10/30 00:17:56;;;;;;;9.20;6.50;;;14.10;99.90;;;;;;5074292;28;20189;-73
2021/10/30 00:20:21;;;;;;;7.13;6.43;;;14.10;99.90;;;;;;5073929;28;20441;-73
2021/10/30 00:22:46;;;;;;;9.07;6.83;;;14.10;99.90;;;;;;5073904;28;20205;-73
2021/10/30 00:25:12;;;;;;;8.17;7.00;;;14.00;99.90;;;;;;5073807;28;20238;-73
2021/10/30 00:27:38;;;;;;;6.97;6.13;;;14.00;99.90;;;;;;5073623;28;20193;-73
2021/10/30 00:30:04;;;;;;;6.23;5.63;;;14.00;99.90;;;;;;5074137;28;20454;-73
2021/10/30 00:32:30;;;;;;;9.90;6.57;;;14.00;99.90;;;;;;5074341;28;20656;-73
2021/10/30 00:34:55;;;;;;;8.97;7.33;;;14.00;99.90;;;;;;5074245;28;20408;-73
2021/10/30 00:37:21;;;;;;;9.23;6.60;;;14.00;99.90;;;;;;5073555;28;20240;-73
2021/10/30 00:39:46;;;;;;;6.50;5.90;;;14.00;99.90;;;;;;5074360;28;20272;-73
2021/10/30 00:42:12;;;;;;;6.97;6.20;;;14.00;99.90;;;;;;5074630;28;20256;-73
2021/10/30 00:44:38;;;;;;;6.80;6.07;;;14.00;99.90;;;;;;5073611;28;20204;-73
2021/10/30 00:47:04;;;;;;;6.83;5.80;;;14.00;99.90;;;;;;5073768;28;20963;-74
2021/10/30 00:49:32;;;;;;;8.77;7.07;;;14.00;99.90;;;;;;5073340;28;20200;-74
2021/10/30 00:51:57;;;;;;;7.40;6.20;;;14.00;99.90;;;;;;5073428;28;20419;-73
2021/10/30 00:54:25;;;;;;;7.37;5.63;;;13.90;99.90;;;;;;5073411;28;20741;-74
2021/10/30 00:56:53;;;;;;;5.60;5.10;;;13.90;99.90;;;;;;5073200;28;20253;-73
2021/10/30 00:59:20;;;;;;;6.23;5.60;;;13.90;99.90;;;;;;5073706;28;20459;-73
2021/10/30 01:01:48;;;;;;;5.90;5.30;;;13.90;99.90;;;;;;5073710;28;20777;-74
2021/10/30 01:04:15;;;;;;;6.60;5.57;;;13.90;99.90;;;;;;5073136;28;20396;-73
2021/10/30 01:06:43;;;;;;;6.63;5.30;;;13.80;99.90;;;;;;5072921;28;20408;-74
2021/10/30 01:09:09;;;;;;;7.50;6.03;;;13.90;99.90;;;;;;5073271;28;20439;-72
2021/10/30 01:11:35;;;;;;;6.43;5.77;;;13.90;99.90;;;;;;5073394;28;20497;-74
2021/10/30 01:14:02;;;;;;;7.40;6.50;;;13.80;99.90;;;;;;5055146;28;20416;-73
2021/10/30 01:16:27;;;;;;;6.40;5.80;;;13.80;99.90;;;;;;5073039;28;20540;-73
2021/10/30 01:18:53;;;;;;;7.30;5.70;;;13.80;99.90;;;;;;5073124;28;20849;-72
2021/10/30 01:21:28;;;;;;;6.80;5.77;;;13.70;99.90;;;;;;5073124;28;20174;-73
2021/10/30 01:23:53;;;;;;;6.80;5.07;;;13.70;99.90;;;;;;5072766;28;20169;-73
2021/10/30 01:26:21;;;;;;;6.77;5.70;;;13.70;99.90;;;;;;5073036;28;20410;-73
2021/10/30 01:28:47;;;;;;;6.37;5.00;;;13.70;99.90;;;;;;5073021;28;20280;-73
2021/10/30 01:31:13;;;;;;;6.53;5.83;;;13.70;99.90;;;;;;5072785;28;20454;-73
2021/10/30 01:33:42;;;;;;;5.70;5.10;;;13.70;99.90;;;;;;5072701;28;20411;-73
2021/10/30 01:36:14;;;;;;;8.80;5.87;;;13.70;99.90;;;;;;5072280;28;20928;-73
2021/10/30 01:38:39;;;;;;;6.00;5.23;;;13.70;99.90;;;;;;5071441;28;20458;-73
2021/10/30 01:41:05;;;;;;;5.90;5.00;;;13.60;99.90;;;;;;5072451;28;20966;-73
2021/10/30 01:43:30;;;;;;;7.20;4.80;;;13.60;99.90;;;;;;5072373;28;20634;-73
2021/10/30 01:45:56;;;;;;;5.83;5.10;;;13.60;99.90;;;;;;5054224;28;20630;-73
2021/10/30 01:48:32;;;;;;;7.40;5.70;;;13.70;99.90;;;;;;5072484;28;20754;-74
2021/10/30 01:50:58;;;;;;;7.63;5.13;;;13.70;99.90;;;;;;5072403;28;20193;-73
2021/10/30 01:53:24;;;;;;;5.70;5.10;;;13.60;99.90;;;;;;5072269;28;20412;-73
2021/10/30 01:55:50;;;;;;;6.53;5.77;;;13.60;99.90;;;;;;5072063;28;20190;-73
2021/10/30 01:58:16;;;;;;;6.30;5.67;;;13.70;99.90;;;;;;5072114;28;20670;-73
2021/10/30 02:00:43;;;;;;;5.03;4.53;;;13.70;99.90;;;;;;5053944;28;20920;-73
2021/10/30 02:03:09;;;;;;;5.93;4.93;;;13.70;99.90;;;;;;5071918;28;20407;-73
2021/10/30 02:05:34;;;;;;;6.87;5.40;;;13.70;99.90;;;;;;5071779;28;20412;-73
2021/10/30 02:08:00;;;;;;;5.67;5.03;;;13.60;99.90;;;;;;5071683;28;20420;-73
2021/10/30 02:10:25;;;;;;;5.67;5.07;;;13.70;99.90;;;;;;5071884;28;20197;-73
2021/10/30 02:12:52;;;;;;;7.40;5.20;;;13.70;99.90;;;;;;5071846;28;20169;-73
2021/10/30 02:15:18;;;;;;;5.33;4.73;;;13.70;99.90;;;;;;5071666;28;20661;-73
2021/10/30 02:17:44;;;;;;;6.87;5.47;;;13.70;99.90;;;;;;5071691;28;20419;-73
2021/10/30 02:20:10;;;;;;;7.70;5.37;;;13.60;99.90;;;;;;5071819;28;20495;-73
2021/10/30 02:22:37;;;;;;;5.50;5.00;;;13.60;99.90;;;;;;5071459;28;20176;-73
2021/10/30 02:25:04;;;;;;;5.50;5.00;;;13.60;99.90;;;;;;5071457;28;20419;-73
2021/10/30 02:27:30;;;;;;;5.30;4.80;;;13.60;99.90;;;;;;5071553;28;20446;-73
2021/10/30 02:29:55;;;;;;;6.50;4.97;;;13.60;99.90;;;;;;5071606;28;20447;-72
2021/10/30 02:32:21;;;;;;;5.73;5.07;;;13.60;99.90;;;;;;5071418;28;20173;-73
2021/10/30 02:34:46;;;;;;;6.23;5.20;;;13.60;99.90;;;;;;5071318;28;20587;-73
2021/10/30 02:37:12;;;;;;;7.97;5.67;;;13.60;99.90;;;;;;5071448;28;20522;-73
2021/10/30 02:39:38;;;;;;;6.87;5.83;;;13.60;99.90;;;;;;5035981;22;20219;-71
2021/10/30 02:42:03;;;;;;;7.47;5.63;;;13.60;99.90;;;;;;4992732;28;20582;-73
2021/10/30 02:44:31;;;;;;;5.53;5.00;;;13.50;99.90;;;;;;4989833;28;20200;-72
2021/10/30 02:46:56;;;;;;;6.10;4.93;;;13.50;99.90;;;;;;4989624;28;20400;-71
2021/10/30 02:49:22;;;;;;;5.97;5.27;;;13.50;99.90;;;;;;4989592;28;20419;-72
2021/10/30 02:51:48;;;;;;;6.80;5.70;;;13.50;99.90;;;;;;4989463;28;20537;-72
2021/10/30 02:54:13;;;;;;;5.03;4.60;;;13.50;99.90;;;;;;4989349;28;20408;-72
2021/10/30 02:56:39;;;;;;;6.13;5.53;;;13.50;99.90;;;;;;4989273;28;20540;-72
2021/10/30 02:59:05;;;;;;;6.50;5.43;;;13.50;99.90;;;;;;4989515;28;20192;-72
2021/10/30 03:01:31;;;;;;;6.83;5.43;;;13.50;99.90;;;;;;4989913;28;20489;-70
2021/10/30 03:03:56;;;;;;;6.13;5.40;;;13.50;99.90;;;;;;4993087;28;20180;-71
2021/10/30 03:06:22;;;;;;;6.17;5.17;;;13.50;99.90;;;;;;4989774;28;20183;-74
2021/10/30 03:08:49;;;;;;;6.53;5.90;;;13.50;99.90;;;;;;4988379;28;20203;-70
2021/10/30 03:11:17;;;;;;;5.30;4.67;;;13.50;99.90;;;;;;4990058;28;20448;-71
2021/10/30 03:13:42;;;;;;;6.70;5.40;;;13.50;99.90;;;;;;4988395;28;20939;-72
2021/10/30 03:16:08;;;;;;;6.73;6.03;;;13.50;99.90;;;;;;4988431;28;20419;-71
2021/10/30 03:18:33;;;;;;;5.63;5.13;;;13.50;99.90;;;;;;4989491;28;20434;-71
2021/10/30 03:20:59;;;;;;;6.20;4.90;;;13.60;99.90;;;;;;4990940;28;20177;-70
2021/10/30 03:23:24;;;;;;;5.90;5.30;;;13.50;99.90;;;;;;4992341;28;20241;-73
2021/10/30 03:25:50;;;;;;;6.87;4.47;;;13.50;99.90;;;;;;4990918;28;20185;-71
2021/10/30 03:28:16;;;;;;;9.00;5.60;;;13.50;99.90;;;;;;4990328;28;20253;-70
2021/10/30 03:30:43;;;;;;;6.43;5.70;;;13.50;99.90;;;;;;4989977;28;20573;-71
2021/10/30 03:33:11;;;;;;;7.67;5.07;;;13.50;99.90;;;;;;4989264;28;20176;-71
2021/10/30 03:35:37;;;;;;;7.40;5.33;;;13.50;99.90;;;;;;4989703;28;20407;-73
2021/10/30 03:38:03;;;;;;;5.80;5.07;;;13.50;99.90;;;;;;4990029;28;20499;-71
2021/10/30 03:40:29;;;;;;;6.20;5.30;;;13.50;99.90;;;;;;4990537;28;20440;-71
2021/10/30 03:42:54;;;;;;;6.63;4.60;;;13.50;99.90;;;;;;4990947;28;20173;-72
2021/10/30 03:45:20;;;;;;;6.90;5.07;;;13.50;99.90;;;;;;4990473;28;20187;-71
2021/10/30 03:47:45;;;;;;;5.67;5.17;;;13.50;99.90;;;;;;4990642;28;20176;-71
2021/10/30 03:50:11;;;;;;;6.60;5.50;;;13.60;99.90;;;;;;4990754;28;20577;-71
2021/10/30 03:52:37;;;;;;;6.80;5.57;;;13.60;99.90;;;;;;4990372;28;20172;-71
2021/10/30 03:55:04;;;;;;;6.37;5.77;;;13.60;99.90;;;;;;4988919;28;20568;-72
2021/10/30 03:57:29;;;;;;;7.17;5.20;;;13.60;99.90;;;;;;4989228;28;20165;-71
2021/10/30 03:59:55;;;;;;;6.17;5.60;;;13.60;99.90;;;;;;4987679;28;20439;-71
2021/10/30 04:02:20;;;;;;;7.63;5.67;;;13.60;99.90;;;;;;4989896;28;20176;-73
2021/10/30 04:04:46;;;;;;;7.63;5.40;;;13.60;99.90;;;;;;4992196;28;20177;-72
2021/10/30 04:07:12;;;;;;;6.80;6.10;;;13.60;99.90;;;;;;4991187;28;20779;-74
2021/10/30 04:09:37;;;;;;;5.93;5.43;;;13.60;99.90;;;;;;4992349;28;20204;-72
2021/10/30 04:12:04;;;;;;;7.50;6.30;;;13.60;99.90;;;;;;4992394;28;20168;-71
2021/10/30 04:14:29;;;;;;;7.90;6.70;;;13.60;99.90;;;;;;4990157;28;20440;-71
2021/10/30 04:16:55;;;;;;;7.73;6.37;;;13.60;99.90;;;;;;4991775;28;20179;-72
2021/10/30 04:19:20;;;;;;;6.83;5.40;;;13.60;99.90;;;;;;4992338;28;20203;-71
2021/10/30 04:21:46;;;;;;;6.40;5.80;;;13.50;99.90;;;;;;4992206;28;20222;-71
2021/10/30 04:24:12;;;;;;;6.17;5.60;;;13.50;99.90;;;;;;4991787;28;20168;-71
2021/10/30 04:26:39;;;;;;;8.60;6.80;;;13.50;99.90;;;;;;4994546;28;20156;-70
2021/10/30 04:29:05;;;;;;;7.30;6.13;;;13.50;99.90;;;;;;4991884;28;20435;-70
2021/10/30 04:31:31;;;;;;;7.60;6.30;;;13.50;99.90;;;;;;4991926;28;20466;-71
2021/10/30 04:34:06;;;;;;;8.33;6.07;;;13.40;99.90;;;;;;4991972;28;20415;-71
2021/10/30 04:36:35;;;;;;;7.97;6.03;;;13.40;99.90;;;;;;4989060;28;20172;-71
2021/10/30 04:39:02;;;;;;;6.30;5.30;;;13.40;99.90;;;;;;4991228;28;20523;-72
2021/10/30 04:41:28;;;;;;;8.20;6.83;;;13.40;99.90;;;;;;4991751;28;20411;-72
2021/10/30 04:43:53;;;;;;;8.87;6.90;;;13.40;99.90;;;;;;4991580;28;20423;-72
2021/10/30 04:46:22;;;;;;;7.03;6.33;;;13.30;99.90;;;;;;4992092;28;20424;-71
2021/10/30 04:48:49;;;;;;;7.57;6.30;;;13.30;99.90;;;;;;4991745;28;20199;-72
2021/10/30 04:51:15;;;;;;;6.73;6.03;;;13.30;99.90;;;;;;4991574;28;20463;-71
2021/10/30 04:53:42;;;;;;;7.70;6.30;;;13.20;99.90;;;;;;4991685;28;20522;-72
2021/10/30 04:56:09;;;;;;;6.63;5.93;;;13.20;99.90;;;;;;4991438;28;20403;-71
2021/10/30 04:58:36;;;;;;;9.77;6.73;;;13.20;99.90;;;;;;4991563;28;20431;-70
2021/10/30 05:01:02;;;;;;;6.70;6.10;;;13.20;99.90;;;;;;4991411;28;20915;-71
2021/10/30 05:03:28;;;;;;;9.10;7.00;;;13.10;99.90;;;;;;4991897;28;20473;-71
2021/10/30 05:05:54;;;;;;;7.63;6.60;;;13.10;99.90;;;;;;4990448;28;20494;-71
2021/10/30 05:08:20;;;;;;;7.10;6.10;;;13.10;99.90;;;;;;4990149;28;20284;-71
2021/10/30 05:10:46;;;;;;;7.67;6.80;;;13.00;99.90;;;;;;4991368;28;20192;-71
2021/10/30 05:13:11;;;;;;;6.63;5.93;;;13.00;99.90;;;;;;4991502;28;20414;-71
2021/10/30 05:15:37;;;;;;;7.23;6.33;;;13.00;99.90;;;;;;4990964;28;20926;-71
2021/10/30 05:18:03;;;;;;;6.23;5.63;;;13.00;99.90;;;;;;4991099;28;20189;-71
2021/10/30 05:20:29;;;;;;;7.87;6.23;;;13.00;99.90;;;;;;4991308;28;20168;-70
2021/10/30 05:22:55;;;;;;;8.50;7.60;;;13.00;99.90;;;;;;4990726;28;20419;-71
2021/10/30 05:25:22;;;;;;;7.30;6.60;;;13.00;99.90;;;;;;4990668;28;20545;-71
2021/10/30 05:27:48;;;;;;;8.40;5.93;;;12.90;99.90;;;;;;4991027;28;20220;-70
2021/10/30 05:30:14;;;;;;;6.70;6.10;;;12.90;99.90;;;;;;4990894;28;20542;-71
2021/10/30 05:32:39;;;;;;;6.70;6.00;;;12.90;99.90;;;;;;4990900;28;20412;-70
2021/10/30 05:35:05;;;;;;;7.67;6.90;;;12.90;99.90;;;;;;4990522;28;20175;-72
2021/10/30 05:37:31;;;;;;;7.43;6.67;;;12.90;99.90;;;;;;4990845;28;20179;-72
2021/10/30 05:39:56;;;;;;;6.60;6.00;;;12.90;99.90;;;;;;4990372;28;20919;-71
2021/10/30 05:42:22;;;;;;;7.80;6.20;;;13.00;99.90;;;;;;4990576;28;20465;-72
2021/10/30 05:44:48;;;;;;;7.20;6.13;;;12.90;99.90;;;;;;4990344;28;20184;-71
2021/10/30 05:47:14;;;;;;;9.23;7.10;;;13.00;99.90;;;;;;4990621;28;20187;-70
2021/10/30 05:49:42;;;;;;;6.70;5.77;;;13.00;99.90;;;;;;4989699;28;20235;-72
2021/10/30 05:52:09;;;;;;;8.77;6.20;;;13.00;99.90;;;;;;4991899;28;20473;-71
2021/10/30 05:54:35;;;;;;;5.87;5.30;;;13.00;99.90;;;;;;4990781;28;20412;-73
2021/10/30 05:57:00;;;;;;;7.80;6.63;;;13.00;99.90;;;;;;4990230;28;20418;-72
2021/10/30 05:59:27;;;;;;;6.63;6.00;;;13.00;99.90;;;;;;4990484;28;20432;-70
2021/10/30 06:01:53;;;;;;;7.17;6.57;;;13.00;99.90;;;;;;4990525;28;20174;-70
2021/10/30 06:04:18;;;;;;;7.47;5.73;;;13.00;99.90;;;;;;4990281;28;20411;-71
2021/10/30 06:06:44;;;;;;;8.70;6.37;;;12.80;99.90;;;;;;4990119;28;20408;-70
2021/10/30 06:09:10;;;;;;;8.57;6.27;;;12.80;99.90;;;;;;4990407;28;20191;-71
2021/10/30 06:11:36;;;;;;;7.40;6.10;;;12.80;99.90;;;;;;4991209;28;20814;-71
2021/10/30 06:14:03;;;;;;;5.83;5.30;;;12.90;99.90;;;;;;4990331;28;20663;-70
2021/10/30 06:16:29;;;;;;;8.10;6.00;;;12.90;99.90;;;;;;4988945;28;20583;-72
2021/10/30 06:18:54;;;;;;;7.10;6.33;;;12.90;99.90;;;;;;4988904;28;20580;-71
2021/10/30 06:21:20;;;;;;;7.47;5.90;;;12.90;99.90;;;;;;4990320;28;20254;-71
2021/10/30 06:23:48;;;;;;;7.53;6.77;;;12.90;99.90;;;;;;4990249;28;20241;-71
2021/10/30 06:26:17;;;;;;;10.03;6.50;;;12.80;99.90;;;;;;4988373;28;20424;-70
2021/10/30 06:28:43;;;;;;;7.23;5.83;;;12.80;99.90;;;;;;4989963;28;20515;-71
2021/10/30 06:31:09;;;;;;;7.40;6.07;;;12.80;99.90;;;;;;4988697;28;20612;-71
2021/10/30 06:33:34;;;;;;;8.63;6.43;;;12.80;99.90;;;;;;4990011;28;20415;-70
2021/10/30 06:36:00;;;;;;;6.67;6.07;;;12.90;99.90;;;;;;4989860;28;20209;-70
2021/10/30 06:38:26;;;;;;;7.47;5.90;;;12.90;99.90;;;;;;4989698;28;20207;-71
2021/10/30 06:40:56;;;;;;;6.57;5.50;;;12.90;99.90;;;;;;4989945;28;20529;-72
2021/10/30 06:43:21;;;;;;;5.83;5.23;;;12.90;99.90;;;;;;4990136;28;20190;-70
2021/10/30 06:45:47;;;;;;;7.10;6.40;;;12.90;99.90;;;;;;4990121;28;20490;-72
2021/10/30 06:48:12;;;;;;;7.50;6.00;;;13.00;99.90;;;;;;4990184;28;20231;-71
2021/10/30 06:50:38;;;;;;;6.37;5.70;;;13.00;99.90;;;;;;4989657;28;20188;-70
2021/10/30 06:53:03;;;;;;;6.67;5.97;;;13.10;99.90;;;;;;4989932;28;20176;-72
2021/10/30 06:55:29;;;;;;;8.13;5.87;;;13.10;99.90;;;;;;4989513;28;20179;-71
2021/10/30 06:57:55;;;;;;;5.90;5.27;;;13.10;99.90;;;;;;4989689;28;20173;-72
2021/10/30 07:00:21;;;;;;;6.23;5.57;;;13.10;99.90;;;;;;4989628;28;20191;-71
2021/10/30 07:02:48;;;;;;;5.90;5.30;;;13.20;99.90;;;;;;4988714;28;20318;-72
2021/10/30 07:05:14;;;;;;;7.17;6.20;;;13.20;99.90;;;;;;4989601;28;20419;-71
2021/10/30 07:07:39;;;;;;;6.43;5.83;;;13.30;99.90;;;;;;4989044;28;20424;-71
2021/10/30 07:10:06;;;;;;;7.60;5.50;;;13.30;99.90;;;;;;4989926;28;20204;-71
2021/10/30 07:12:34;;;;;;;6.73;5.20;;;13.30;99.90;;;;;;4989343;28;20236;-71
2021/10/30 07:14:59;;;;;;;7.13;5.70;;;13.30;99.90;;;;;;4988980;28;20404;-71
2021/10/30 07:17:25;;;;;;;8.13;6.10;;;13.30;99.90;;;;;;4988545;28;20931;-73
2021/10/30 07:19:51;;;;;;;6.83;5.90;;;13.40;99.90;;;;;;4989891;28;20266;-71
2021/10/30 07:22:17;;;;;;;7.10;6.33;;;13.40;99.90;;;;;;4989751;28;20172;-71
2021/10/30 07:24:43;;;;;;;6.87;5.97;;;13.40;99.90;;;;;;4989515;28;20411;-70
2021/10/30 07:27:10;;;;;;;5.60;5.10;;;13.40;99.90;;;;;;4989442;28;20439;-72
2021/10/30 07:29:36;;;;;;;6.63;5.80;;;13.40;99.90;;;;;;4987918;28;20432;-71
2021/10/30 07:32:01;;;;;;;6.03;5.43;;;13.40;99.90;;;;;;4989617;28;20950;-71
2021/10/30 07:34:27;;;;;;;5.83;5.33;;;13.40;99.90;;;;;;4989414;28;20176;-71
2021/10/30 07:36:52;;;;;;;6.73;5.40;;;13.40;99.90;;;;;;4988420;28;20230;-73
2021/10/30 07:39:18;;;;;;;5.60;4.50;;;13.40;99.90;;;;;;4992909;28;20247;-73
2021/10/30 07:41:43;;;;;;;7.10;5.97;;;13.40;99.90;;;;;;4992958;28;20263;-72
2021/10/30 07:44:10;;;;;;;6.00;5.10;;;13.40;99.90;;;;;;4993168;28;20176;-71
2021/10/30 07:46:36;;;;;;;7.47;5.67;;;13.40;99.90;;;;;;4992335;28;20184;-71
2021/10/30 07:49:02;;;;;;;5.30;4.80;;;13.40;99.90;;;;;;4991732;28;20951;-71
2021/10/30 07:51:27;;;;;;;8.03;6.10;;;13.50;99.90;;;;;;4997914;28;20448;-71
2021/10/30 07:53:53;;;;;;;5.97;5.43;;;13.40;99.90;;;;;;4992896;28;20439;-71
2021/10/30 07:56:19;;;;;;;6.53;5.77;;;13.50;99.90;;;;;;4992623;28;20183;-70
2021/10/30 07:58:44;;;;;;;5.97;5.47;;;13.50;99.90;;;;;;4993006;28;20211;-71
2021/10/30 08:01:10;;;;;;;6.23;5.63;;;13.50;99.90;;;;;;4991716;28;20194;-71
2021/10/30 08:03:36;;;;;;;5.90;5.17;;;13.50;99.90;;;;;;4992996;28;20184;-70
2021/10/30 08:06:01;;;;;;;7.50;5.60;;;13.50;99.90;;;;;;4992659;28;20636;-69
2021/10/30 08:08:27;;;;;;;7.20;5.30;;;13.50;99.90;;;;;;4992468;28;20228;-70
2021/10/30 08:10:52;;;;;;;6.70;5.00;;;13.60;99.90;;;;;;4997550;28;20226;-72
2021/10/30 08:13:18;;;;;;;5.90;5.30;;;13.60;99.90;;;;;;4993674;28;20316;-70
2021/10/30 08:15:43;;;;;;;6.30;5.33;;;13.60;99.90;;;;;;4992064;28;20175;-70
2021/10/30 08:18:09;;;;;;;6.17;5.10;;;13.70;99.90;;;;;;4992555;28;20223;-71
2021/10/30 08:20:35;;;;;;;5.60;5.00;;;13.70;99.90;;;;;;4992274;28;20180;-71
2021/10/30 08:23:00;;;;;;;5.70;4.40;;;13.70;99.90;;;;;;4992290;28;20171;-71
2021/10/30 08:25:26;;;;;;;5.00;4.50;;;13.70;99.90;;;;;;4991418;28;20537;-72
2021/10/30 08:27:53;;;;;;;5.00;4.60;;;13.70;99.90;;;;;;4991882;28;20217;-71
2021/10/30 08:30:18;;;;;;;5.60;4.30;;;13.80;99.90;;;;;;4992146;28;20455;-71
2021/10/30 08:32:45;;;;;;;6.63;5.27;;;13.80;99.90;;;;;;4991900;28;20404;-72
2021/10/30 08:35:10;;;;;;;5.47;4.57;;;13.70;99.90;;;;;;4991439;28;20171;-71
2021/10/30 08:37:38;;;;;;;5.20;4.40;;;13.70;99.90;;;;;;4991844;28;20415;-72
2021/10/30 08:40:10;;;;;;;5.47;4.60;;;13.70;99.90;;;;;;5081898;23;20224;-72
2021/10/30 08:42:36;;;;;;;6.53;4.43;;;13.70;99.90;;;;;;5076947;28;20420;-72
2021/10/30 08:45:02;;;;;;;5.87;5.27;;;13.70;99.90;;;;;;5073591;28;20404;-72
2021/10/30 08:47:29;;;;;;;8.23;5.40;;;13.70;99.90;;;;;;5073680;28;20407;-72
2021/10/30 08:49:54;;;;;;;7.90;5.30;;;13.70;99.90;;;;;;5073054;28;20971;-71
2021/10/30 08:52:21;;;;;;;5.03;4.37;;;13.80;99.90;;;;;;5073856;28;20411;-72
2021/10/30 08:54:46;;;;;;;5.50;4.93;;;13.80;99.90;;;;;;5073158;28;20164;-71
2021/10/30 08:57:12;;;;;;;5.30;4.80;;;13.80;99.90;;;;;;5073331;28;20495;-72
2021/10/30 08:59:42;;;;;;;8.63;5.33;;;13.80;99.90;;;;;;5073406;28;20197;-71
2021/10/30 09:02:14;;;;;;;5.80;5.13;;;13.80;99.90;;;;;;5073558;28;20610;-71
2021/10/30 09:04:39;;;;;;;5.30;4.80;;;13.70;99.90;;;;;;5073339;28;20775;-69
2021/10/30 09:07:08;;;;;;;5.80;5.23;;;13.80;99.90;;;;;;5073014;28;20412;-71
2021/10/30 09:09:36;;;;;;;5.90;5.07;;;13.80;99.90;;;;;;5072819;28;20194;-72
2021/10/30 09:12:03;;;;;;;6.63;5.10;;;13.80;99.90;;;;;;5073449;28;20409;-72
2021/10/30 09:14:43;;;;;;;5.60;4.93;;;13.80;99.90;;;;;;5073317;28;20498;-73
2021/10/30 09:17:19;;;;;;;4.60;4.20;;;13.90;99.90;;;;;;5072921;28;20440;-72
2021/10/30 09:19:55;;;;;;;5.47;4.93;;;13.90;99.90;;;;;;5073519;28;20488;-72
2021/10/30 09:22:23;;;;;;;5.20;4.63;;;14.00;99.90;;;;;;5073186;28;20412;-72
2021/10/30 09:25:07;;;;;;;5.00;4.50;;;14.10;99.90;;;;;;5072586;28;20430;-72
2021/10/30 09:27:46;;;;;;;5.33;4.47;;;14.10;99.90;;;;;;5072932;28;20774;-72
2021/10/30 09:30:13;;;;;;;5.67;4.90;;;14.20;99.90;;;;;;5072808;28;20458;-72
2021/10/30 09:32:40;;;;;;;5.47;4.97;;;14.20;99.90;;;;;;5072709;28;20400;-72
2021/10/30 09:35:06;;;;;;;4.63;4.23;;;14.20;99.90;;;;;;5072749;28;20490;-72
2021/10/30 09:37:35;;;;;;;5.47;4.53;;;14.20;99.90;;;;;;5072646;28;20707;-71
2021/10/30 09:40:19;;;;;;;4.67;4.07;;;14.30;99.90;;;;;;5072578;28;21011;-71
2021/10/30 09:43:07;;;;;;;6.73;4.80;;;14.30;99.90;;;;;;5072603;28;20773;-72
2021/10/30 09:45:36;;;;;;;5.90;4.97;;;14.30;99.90;;;;;;5044261;28;20420;-71
2021/10/30 09:48:02;;;;;;;5.93;5.10;;;14.30;99.90;;;;;;5054459;28;20415;-73
2021/10/30 09:50:30;;;;;;;6.17;5.20;;;14.30;99.90;;;;;;5054470;28;20451;-73
2021/10/30 09:52:56;;;;;;;5.90;5.40;;;14.30;99.90;;;;;;5072913;28;20412;-72
2021/10/30 09:55:27;;;;;;;8.00;5.93;;;14.20;99.90;;;;;;5072174;28;20755;-72
2021/10/30 09:58:04;;;;;;;6.23;5.63;;;14.20;99.90;;;;;;5072782;28;20158;-72
2021/10/30 10:00:31;;;;;;;6.20;5.60;;;14.20;99.90;;;;;;5071331;28;20910;-72
2021/10/30 10:02:59;;;;;;;6.53;5.90;;;14.10;99.90;;;;;;5072503;28;20502;-72
2021/10/30 10:05:27;;;;;;;7.20;5.87;;;14.10;99.90;;;;;;5072295;28;20415;-72
2021/10/30 10:07:54;;;;;;;6.37;5.70;;;14.10;99.90;;;;;;5072185;28;20507;-71
2021/10/30 10:10:20;;;;;;;8.93;6.13;;;14.20;99.90;;;;;;5072260;28;20462;-71
2021/10/30 10:12:46;;;;;;;5.90;5.40;;;14.20;99.90;;;;;;5072043;28;20764;-71
2021/10/30 10:15:13;;;;;;;7.43;5.80;;;14.30;99.90;;;;;;5072000;28;20410;-72
2021/10/30 10:17:39;;;;;;;9.37;6.57;;;14.30;99.90;;;;;;5072255;28;20290;-73
2021/10/30 10:20:08;;;;;;;7.10;5.10;;;14.30;99.90;;;;;;5071906;28;20424;-71
2021/10/30 10:22:35;;;;;;;7.50;5.93;;;14.30;99.90;;;;;;5072140;28;20618;-72
2021/10/30 10:25:46;;;;;;;7.03;6.20;;;14.40;99.90;;;;;;5071966;28;20412;-71
2021/10/30 10:28:25;;;;;;;6.00;5.27;;;14.30;99.90;;;;;;5009583;28;20431;-71
2021/10/30 10:31:11;;;;;;;6.43;5.43;;;14.30;99.90;;;;;;5009709;28;20540;-72
2021/10/30 10:33:39;;;;;;;6.40;5.80;;;14.30;99.90;;;;;;5010140;28;20442;-73
2021/10/30 10:36:14;;;;;;;6.87;5.73;;;14.30;99.90;;;;;;5009381;28;20419;-72
2021/10/30 10:38:58;;;;;;;7.20;6.50;;;14.30;99.90;;;;;;5009328;28;20517;-73
2021/10/30 10:41:38;;;;;;;6.80;6.10;;;14.40;99.90;;;;;;5009547;28;20419;-72
2021/10/30 10:44:04;;;;;;;7.03;6.43;;;14.30;99.90;;;;;;5009545;28;20926;-72
2021/10/30 10:46:31;;;;;;;7.70;5.80;;;14.40;99.90;;;;;;5009249;28;20864;-72
2021/10/30 10:49:17;;;;;;;7.90;6.40;;;14.30;99.90;;;;;;5009111;28;20439;-71
2021/10/30 10:51:46;;;;;;;6.30;5.70;;;14.30;99.90;;;;;;5009337;28;20549;-73
2021/10/30 10:54:12;;;;;;;6.90;5.93;;;14.20;99.90;;;;;;5009403;28;20565;-73
2021/10/30 10:56:55;;;;;;;6.53;5.43;;;14.20;99.90;;;;;;4992778;28;20915;-70
2021/10/30 10:59:39;;;;;;;7.83;7.03;;;14.10;99.90;;;;;;5053643;28;20564;-71
2021/10/30 11:02:21;;;;;;;6.17;5.57;;;14.10;99.90;;;;;;5071080;28;20392;-71
2021/10/30 11:05:08;;;;;;;7.00;6.30;;;14.20;99.90;;;;;;5071016;28;20403;-71
2021/10/30 11:07:59;;;;;;;6.70;5.37;;;14.10;99.90;;;;;;5071388;28;20392;-71
2021/10/30 11:10:26;;;;;;;7.03;6.00;;;14.20;99.90;;;;;;5071035;28;20951;-71
2021/10/30 11:12:58;;;;;;;7.60;6.57;;;14.10;99.90;;;;;;5075013;28;20443;-71
2021/10/30 11:15:24;;;;;;;7.43;6.27;;;14.10;99.90;;;;;;5074565;28;20987;-71
2021/10/30 11:18:05;;;;;;;7.97;7.13;;;14.10;99.90;;;;;;5075212;28;20418;-72
2021/10/30 11:21:25;;;;;;;6.83;5.83;;;14.10;99.90;;;;;;5075132;28;20997;-72
2021/10/30 11:23:53;;;;;;;5.80;5.20;;;14.10;99.90;;;;;;5075127;28;20888;-71
2021/10/30 11:26:24;;;;;;;8.03;5.60;;;14.10;99.90;;;;;;5074843;28;20492;-71
2021/10/30 11:29:03;;;;;;;9.13;5.70;;;14.10;99.90;;;;;;5075033;28;20549;-72
2021/10/30 11:31:30;;;;;;;6.17;5.57;;;14.10;99.90;;;;;;5074945;28;20489;-72
2021/10/30 11:33:58;;;;;;;6.57;5.97;;;14.10;99.90;;;;;;5074962;28;20408;-71
2021/10/30 11:36:25;;;;;;;7.63;5.70;;;14.10;99.90;;;;;;5074894;28;20904;-72
2021/10/30 11:38:52;;;;;;;6.60;5.47;;;14.10;99.90;;;;;;5074891;28;20462;-71
2021/10/30 11:41:20;;;;;;;5.80;5.30;;;14.10;99.90;;;;;;5074740;28;20407;-72
2021/10/30 11:43:48;;;;;;;6.90;6.20;;;14.20;99.90;;;;;;5075095;28;20779;-72
2021/10/30 11:46:16;;;;;;;6.03;5.43;;;14.20;99.90;;;;;;5074535;28;20500;-72
2021/10/30 11:48:57;;;;;;;7.33;5.93;;;14.20;99.90;;;;;;5074850;28;20431;-72
2021/10/30 11:51:27;;;;;;;7.43;6.13;;;14.10;99.90;;;;;;5075031;28;20440;-71
2021/10/30 11:53:53;;;;;;;6.67;6.00;;;14.10;99.90;;;;;;5074731;28;20449;-72
2021/10/30 11:56:25;;;;;;;8.00;7.03;;;14.10;99.90;;;;;;5074543;28;20948;-71
2021/10/30 11:58:54;;;;;;;5.80;5.30;;;14.10;99.90;;;;;;5074794;28;20189;-71
2021/10/30 12:01:40;;;;;;;6.20;5.60;;;14.10;99.90;;;;;;5074920;28;20454;-72
2021/10/30 12:04:05;;;;;;;8.17;6.10;;;14.10;99.90;;;;;;5074560;28;20404;-72
2021/10/30 12:06:33;;;;;;;7.33;6.47;;;14.00;99.90;;;;;;5074328;28;20776;-72
2021/10/30 12:09:02;;;;;;;6.50;5.90;;;14.00;99.90;;;;;;5073980;28;20666;-72
2021/10/30 12:11:29;;;;;;;7.20;6.50;;;14.10;99.90;;;;;;5074510;28;20451;-72
2021/10/30 12:13:59;;;;;;;6.07;5.50;;;14.00;99.90;;;;;;5074203;28;20407;-72
2021/10/30 12:16:26;;;;;;;6.90;6.00;;;14.00;99.90;;;;;;5072731;28;20452;-72
2021/10/30 12:18:53;;;;;;;6.90;6.20;;;14.00;99.90;;;;;;5074518;28;20273;-72
2021/10/30 12:21:19;;;;;;;5.87;5.30;;;14.00;99.90;;;;;;5074168;28;20420;-72
2021/10/30 12:24:04;;;;;;;6.20;5.23;;;14.00;99.90;;;;;;5072987;28;20414;-72
2021/10/30 12:26:33;;;;;;;6.60;5.50;;;13.90;99.90;;;;;;5074113;28;20205;-71
2021/10/30 12:29:14;;;;;;;7.73;5.40;;;14.00;99.90;;;;;;5073843;28;20792;-72
2021/10/30 12:31:41;;;;;;;6.63;5.70;;;14.00;99.90;;;;;;5073614;28;20473;-72
2021/10/30 12:34:23;;;;;;;6.47;5.40;;;13.90;99.90;;;;;;5073854;28;20499;-72
2021/10/30 12:36:50;;;;;;;5.67;5.10;;;13.90;99.90;;;;;;5056987;28;20432;-72
2021/10/30 12:39:20;;;;;;;8.93;6.30;;;13.90;99.90;;;;;;5073551;28;20435;-71
2021/10/30 12:41:53;;;;;;;7.03;5.83;;;13.80;99.90;;;;;;5075003;28;20423;-71
2021/10/30 12:44:23;;;;;;;7.97;6.37;;;13.80;99.90;;;;;;5073732;28;20921;-71
2021/10/30 12:46:56;;;;;;;5.43;4.97;;;13.80;99.90;;;;;;5073434;28;20410;-70
2021/10/30 12:49:24;;;;;;;5.83;5.23;;;13.90;99.90;;;;;;5055402;28;20443;-72
2021/10/30 12:52:03;;;;;;;6.80;5.37;;;13.80;99.90;;;;;;5074011;28;20496;-72